Terminal Aerodrome Forecast
Issued by NWS

Current Version | Previous Version | Text Only | Print | Product List | Glossary On
Versions: 1 2 3 4 5 6 7 8 9 10 11 12 13 14
000
FTUS41 KBTV 201500 AAA
TAFSLK
TAF AMD
KSLK 201528Z 2015/2112 21015G25KT P6SM OVC015
     FM210100 22008KT P6SM OVC050
     FM210600 21008KT 4SM BR OVC025=

USA.gov is the U.S. government's official web portal to all federal, state and local government web resources and services.